createdAt,value
2022-08-22T00:02:31.021Z,14.10
2022-08-22T00:02:41.976Z,20.90
2022-08-22T00:03:04.188Z,15.90
2022-08-22T00:03:09.131Z,14.30
2022-08-22T00:03:11.173Z,20.00
2022-08-22T00:05:26.569Z,14.10
2022-08-22T00:08:00.805Z,14.10
2022-08-22T00:10:47.434Z,13.90
2022-08-22T00:13:22.666Z,13.80
2022-08-22T00:16:05.396Z,13.70
2022-08-22T00:18:42.951Z,13.60
2022-08-22T00:21:15.004Z,13.60
2022-08-22T00:23:50.575Z,13.60
2022-08-22T00:26:35.971Z,13.70
2022-08-22T00:29:07.495Z,13.70
2022-08-22T00:31:39.921Z,13.70
2022-08-22T00:34:09.454Z,13.80
2022-08-22T00:36:43.422Z,13.80
2022-08-22T00:39:17.599Z,13.90
2022-08-22T00:42:15.026Z,14.00
2022-08-22T00:45:17.005Z,13.90
2022-08-22T00:47:51.381Z,13.70
2022-08-22T00:50:40.463Z,13.70
2022-08-22T00:53:54.529Z,13.60
2022-08-22T00:56:41.368Z,13.30
2022-08-22T00:59:29.299Z,13.10
2022-08-22T01:02:28.612Z,13.00
2022-08-22T01:05:21.859Z,13.10
2022-08-22T01:07:59.678Z,13.10
2022-08-22T01:10:43.379Z,13.20
2022-08-22T01:13:38.088Z,13.10
2022-08-22T01:16:38.526Z,13.10
2022-08-22T01:19:29.546Z,13.10
2022-08-22T01:22:24.393Z,13.10
2022-08-22T01:25:18.391Z,13.20
2022-08-22T01:28:05.038Z,13.10
2022-08-22T01:30:54.493Z,13.10
2022-08-22T01:34:03.209Z,13.10
2022-08-22T01:37:11.830Z,13.20
2022-08-22T01:40:02.658Z,13.20
2022-08-22T01:43:07.261Z,13.20
2022-08-22T01:45:55.490Z,13.20
2022-08-22T01:48:38.142Z,13.20
2022-08-22T01:51:29.428Z,13.30
2022-08-22T01:54:07.121Z,13.30
2022-08-22T01:56:39.870Z,13.30
2022-08-22T01:59:15.031Z,13.30
2022-08-22T02:01:51.605Z,13.20
2022-08-22T02:04:36.896Z,12.90
2022-08-22T02:07:14.703Z,12.70
2022-08-22T02:10:11.282Z,12.70
2022-08-22T02:12:41.334Z,12.60
2022-08-22T02:15:14.908Z,12.60
2022-08-22T02:17:50.968Z,12.60
2022-08-22T02:20:24.331Z,12.60
2022-08-22T02:23:15.942Z,12.60
2022-08-22T02:26:08.152Z,12.70
2022-08-22T02:28:58.100Z,12.70
2022-08-22T02:31:53.110Z,12.80
2022-08-22T02:34:38.164Z,12.80
2022-08-22T02:37:15.634Z,12.80
2022-08-22T02:40:10.329Z,12.60
2022-08-22T02:42:42.035Z,12.60
2022-08-22T02:45:38.948Z,12.50
2022-08-22T02:48:20.154Z,12.40
2022-08-22T02:51:10.021Z,12.40
2022-08-22T02:53:39.446Z,12.40
2022-08-22T02:56:18.756Z,12.40
2022-08-22T02:59:00.114Z,12.30
2022-08-22T03:01:29.863Z,12.30
2022-08-22T03:04:30.741Z,12.30
2022-08-22T03:07:06.375Z,12.20
2022-08-22T03:09:40.115Z,12.20
2022-08-22T03:12:19.306Z,12.20
2022-08-22T03:15:03.234Z,12.20
2022-08-22T03:17:40.414Z,12.20
2022-08-22T03:20:13.935Z,12.10
2022-08-22T03:22:43.745Z,12.00
2022-08-22T03:25:38.232Z,11.90
2022-08-22T03:28:18.359Z,11.80
2022-08-22T03:30:55.982Z,11.70
2022-08-22T03:33:25.970Z,11.60
2022-08-22T03:36:04.110Z,11.60
2022-08-22T03:38:33.814Z,11.50
2022-08-22T03:41:24.455Z,11.60
2022-08-22T03:44:15.901Z,11.70
2022-08-22T03:46:55.783Z,11.70
2022-08-22T03:49:58.937Z,11.70
2022-08-22T03:53:04.424Z,11.70
2022-08-22T03:55:52.656Z,11.70
2022-08-22T03:58:48.487Z,11.80
2022-08-22T04:01:53.545Z,11.80
2022-08-22T04:04:33.311Z,11.90
2022-08-22T04:07:31.582Z,11.90
2022-08-22T04:10:36.556Z,11.90
2022-08-22T04:13:28.230Z,12.00
2022-08-22T04:16:14.837Z,12.10
2022-08-22T04:18:56.399Z,12.10
2022-08-22T04:21:47.809Z,12.20
2022-08-22T04:24:30.182Z,12.30
2022-08-22T04:27:20.292Z,12.30
2022-08-22T04:30:06.927Z,12.30
2022-08-22T04:32:41.488Z,12.30
2022-08-22T04:35:16.270Z,12.30
2022-08-22T04:37:58.658Z,12.30
2022-08-22T04:40:38.990Z,12.30
2022-08-22T04:43:41.374Z,12.30
2022-08-22T04:46:20.011Z,12.20
2022-08-22T04:48:58.709Z,12.20
2022-08-22T04:51:33.486Z,12.10
2022-08-22T04:54:15.428Z,12.10
2022-08-22T04:56:54.734Z,12.30
2022-08-22T04:59:24.993Z,12.50
2022-08-22T05:01:59.750Z,12.70
2022-08-22T05:04:33.526Z,13.20
2022-08-22T05:07:15.498Z,13.70
2022-08-22T05:09:48.404Z,14.30
2022-08-22T05:12:20.220Z,14.90
2022-08-22T05:14:54.400Z,15.40
2022-08-22T05:17:27.583Z,15.70
2022-08-22T05:20:00.327Z,16.10
2022-08-22T05:22:37.927Z,16.30
2022-08-22T05:25:12.832Z,16.50
2022-08-22T05:27:44.614Z,16.60
2022-08-22T05:30:16.352Z,16.60
2022-08-22T05:32:48.862Z,16.60
2022-08-22T05:35:18.305Z,16.80
2022-08-22T05:37:48.859Z,17.30
2022-08-22T05:40:26.052Z,17.70
2022-08-22T05:42:54.781Z,17.80
2022-08-22T05:45:23.162Z,17.90
2022-08-22T05:47:57.332Z,18.20
2022-08-22T05:50:40.320Z,18.40
2022-08-22T05:53:29.986Z,18.80
2022-08-22T05:56:09.007Z,19.50
2022-08-22T05:58:42.714Z,20.20
2022-08-22T06:01:30.108Z,20.70
2022-08-22T06:04:17.083Z,20.80
2022-08-22T06:06:56.332Z,20.70
2022-08-22T06:10:06.990Z,20.80
2022-08-22T06:12:43.289Z,20.80
2022-08-22T06:15:21.076Z,20.60
2022-08-22T06:17:55.801Z,20.60
2022-08-22T06:20:47.696Z,20.70
2022-08-22T06:23:29.301Z,20.90
2022-08-22T06:26:00.142Z,21.10
2022-08-22T06:28:32.751Z,21.40
2022-08-22T06:31:06.278Z,21.70
2022-08-22T06:33:38.389Z,22.10
2022-08-22T06:36:30.510Z,22.50
2022-08-22T06:39:23.127Z,23.10
2022-08-22T06:42:04.583Z,23.70
2022-08-22T06:44:35.448Z,24.10
2022-08-22T06:47:07.618Z,24.70
2022-08-22T06:49:37.354Z,25.00
2022-08-22T06:52:12.200Z,24.90
2022-08-22T06:54:43.398Z,25.10
2022-08-22T06:57:42.275Z,25.60
2022-08-22T07:00:14.102Z,26.40
2022-08-22T07:02:44.783Z,26.90
2022-08-22T07:05:18.769Z,26.40
2022-08-22T07:07:45.690Z,26.00
2022-08-22T07:10:21.831Z,26.50
2022-08-22T07:12:54.921Z,26.60
2022-08-22T07:15:40.522Z,26.30
2022-08-22T07:18:16.841Z,26.50
2022-08-22T07:20:47.469Z,27.00
2022-08-22T07:23:31.567Z,27.50
2022-08-22T07:26:39.500Z,27.30
2022-08-22T07:29:14.118Z,26.90
2022-08-22T07:32:06.140Z,27.00
2022-08-22T07:35:03.057Z,26.80
2022-08-22T07:37:44.810Z,26.70
2022-08-22T07:40:11.564Z,26.30
2022-08-22T07:42:51.589Z,26.60
2022-08-22T07:45:31.917Z,27.50
2022-08-22T07:48:25.595Z,27.70
2022-08-22T07:51:07.828Z,27.60
2022-08-22T07:53:46.835Z,27.80
2022-08-22T07:56:44.939Z,27.70
2022-08-22T07:59:18.110Z,27.90
2022-08-22T08:01:51.210Z,28.50
2022-08-22T08:04:21.677Z,28.20
2022-08-22T08:06:54.946Z,27.90
2022-08-22T08:09:22.394Z,28.00
2022-08-22T08:11:53.148Z,28.30
2022-08-22T08:14:23.390Z,28.70
2022-08-22T08:17:13.284Z,29.90
2022-08-22T08:19:42.050Z,30.10
2022-08-22T08:22:16.910Z,30.40
2022-08-22T08:24:45.103Z,30.90
2022-08-22T08:27:38.889Z,31.10
2022-08-22T08:30:15.380Z,31.50
2022-08-22T08:32:46.078Z,32.40
2022-08-22T08:35:25.619Z,32.10
2022-08-22T08:37:58.701Z,32.50
2022-08-22T08:40:51.374Z,32.10
2022-08-22T08:43:59.119Z,31.40
2022-08-22T08:46:31.767Z,30.40
2022-08-22T08:49:06.530Z,29.20
2022-08-22T08:52:06.945Z,29.10
2022-08-22T08:55:10.533Z,28.90
2022-08-22T08:58:23.991Z,28.70
2022-08-22T09:01:32.518Z,29.00
2022-08-22T09:04:42.437Z,29.50
2022-08-22T09:07:53.451Z,29.30
2022-08-22T09:10:39.583Z,28.30
2022-08-22T09:13:37.610Z,28.10
2022-08-22T09:16:34.723Z,28.20
2022-08-22T09:19:23.611Z,28.40
2022-08-22T09:22:16.167Z,28.10
2022-08-22T09:25:30.801Z,28.30
2022-08-22T09:28:29.462Z,28.70
2022-08-22T09:31:16.966Z,29.50
2022-08-22T09:34:27.262Z,29.80
2022-08-22T09:37:23.825Z,29.30
2022-08-22T09:43:21.433Z,29.70
2022-08-22T09:46:01.998Z,29.10
2022-08-22T09:48:57.882Z,29.10
2022-08-22T09:51:55.140Z,29.10
2022-08-22T09:54:35.422Z,29.60
2022-08-22T09:57:14.023Z,30.20
2022-08-22T10:00:22.141Z,30.80
2022-08-22T10:03:09.037Z,32.00
2022-08-22T10:06:09.200Z,33.00
2022-08-22T10:09:06.209Z,33.10
2022-08-22T10:11:46.155Z,33.20
2022-08-22T10:14:26.178Z,32.20
2022-08-22T10:17:25.350Z,31.30
2022-08-22T10:20:25.182Z,30.80
2022-08-22T10:23:33.508Z,30.30
2022-08-22T10:26:26.461Z,30.70
2022-08-22T10:29:03.469Z,31.70
2022-08-22T10:31:58.874Z,32.00
2022-08-22T10:34:43.385Z,32.20
2022-08-22T10:37:36.745Z,31.60
2022-08-22T10:40:36.087Z,31.40
2022-08-22T10:43:15.009Z,32.00
2022-08-22T10:45:47.873Z,31.90
2022-08-22T10:48:40.475Z,32.30
2022-08-22T10:51:43.950Z,33.10
2022-08-22T10:54:27.126Z,33.50
2022-08-22T10:57:24.115Z,33.60
2022-08-22T11:00:14.166Z,33.30
2022-08-22T11:03:15.162Z,33.50
2022-08-22T11:06:00.179Z,33.70
2022-08-22T11:08:34.788Z,33.90
2022-08-22T11:11:07.515Z,35.00
2022-08-22T11:13:46.518Z,35.80
2022-08-22T11:16:26.085Z,36.10
2022-08-22T11:19:27.180Z,36.20
2022-08-22T11:22:34.023Z,35.90
2022-08-22T11:25:38.511Z,34.80
2022-08-22T11:28:38.736Z,33.80
2022-08-22T11:31:28.206Z,32.30
2022-08-22T11:34:01.657Z,32.30
2022-08-22T11:36:46.874Z,32.10
2022-08-22T11:39:34.663Z,31.30
2022-08-22T11:42:22.148Z,30.70
2022-08-22T11:44:57.254Z,30.20
2022-08-22T11:47:36.823Z,29.90
2022-08-22T11:50:29.711Z,30.00
2022-08-22T11:53:14.403Z,30.70
2022-08-22T11:56:14.223Z,30.40
2022-08-22T11:59:02.619Z,30.30
2022-08-22T12:01:55.724Z,30.30
2022-08-22T12:04:43.983Z,30.90
2022-08-22T12:07:22.266Z,32.10
2022-08-22T12:10:13.802Z,32.20
2022-08-22T12:13:01.171Z,31.80
2022-08-22T12:15:53.879Z,30.80
2022-08-22T12:18:29.918Z,29.70
2022-08-22T12:21:18.200Z,29.60
2022-08-22T12:24:19.297Z,29.20
2022-08-22T12:27:14.193Z,29.40
2022-08-22T12:29:55.925Z,29.90
2022-08-22T12:33:03.419Z,30.10
2022-08-22T12:35:44.518Z,30.70
2022-08-22T12:38:41.727Z,30.90
2022-08-22T12:41:35.040Z,30.80
2022-08-22T12:44:17.744Z,30.50
2022-08-22T12:47:09.832Z,30.40
2022-08-22T12:49:56.001Z,30.60
2022-08-22T12:53:02.692Z,30.40
2022-08-22T12:55:51.003Z,30.70
2022-08-22T12:58:35.462Z,31.30
2022-08-22T13:01:07.043Z,31.50
2022-08-22T13:03:42.171Z,31.00
2022-08-22T13:06:33.654Z,31.20
2022-08-22T13:09:01.629Z,31.80
2022-08-22T13:11:35.934Z,32.40
2022-08-22T13:14:03.750Z,32.40
2022-08-22T13:16:49.010Z,32.20
2022-08-22T13:19:24.847Z,31.60
2022-08-22T13:22:11.533Z,31.00
2022-08-22T13:24:52.487Z,30.70
2022-08-22T13:27:34.012Z,30.20
2022-08-22T13:30:07.213Z,29.80
2022-08-22T13:32:47.399Z,29.50
2022-08-22T13:35:23.947Z,30.00
2022-08-22T13:38:02.883Z,31.30
2022-08-22T13:40:35.043Z,32.20
2022-08-22T13:43:11.900Z,32.70
2022-08-22T13:45:41.764Z,32.90
2022-08-22T13:48:16.428Z,32.60
2022-08-22T13:51:08.061Z,31.90
2022-08-22T13:54:00.643Z,31.50
2022-08-22T13:57:02.733Z,31.20
2022-08-22T14:00:11.525Z,30.40
2022-08-22T14:03:09.551Z,29.70
2022-08-22T14:05:53.239Z,29.10
2022-08-22T14:08:25.755Z,28.70
2022-08-22T14:11:13.408Z,28.70
2022-08-22T14:13:55.401Z,29.10
2022-08-22T14:16:31.649Z,29.30
2022-08-22T14:19:06.120Z,29.00
2022-08-22T14:21:55.420Z,28.90
2022-08-22T14:24:45.623Z,28.30
2022-08-22T14:27:29.346Z,28.20
2022-08-22T14:30:01.358Z,28.20
2022-08-22T14:32:44.566Z,28.30
2022-08-22T14:35:35.271Z,28.40
2022-08-22T14:38:39.214Z,28.50
2022-08-22T14:41:52.710Z,28.80
2022-08-22T14:44:44.475Z,28.90
2022-08-22T14:47:55.553Z,29.00
2022-08-22T14:50:45.227Z,29.10
2022-08-22T14:53:22.275Z,29.40
2022-08-22T14:56:24.825Z,29.50
2022-08-22T14:58:58.435Z,29.00
2022-08-22T15:01:29.931Z,28.40
2022-08-22T15:04:02.477Z,28.00
2022-08-22T15:06:51.096Z,28.00
2022-08-22T15:09:42.001Z,27.80
2022-08-22T15:12:42.699Z,27.90
2022-08-22T15:15:41.127Z,28.30
2022-08-22T15:18:18.520Z,28.60
2022-08-22T15:20:52.137Z,28.70
2022-08-22T15:23:23.309Z,29.00
2022-08-22T15:26:13.302Z,29.30
2022-08-22T15:28:53.037Z,29.40
2022-08-22T15:31:21.102Z,29.00
2022-08-22T15:33:48.779Z,28.60
2022-08-22T15:36:22.569Z,28.40
2022-08-22T15:38:57.171Z,28.30
2022-08-22T15:41:36.990Z,28.20
2022-08-22T15:44:33.414Z,28.30
2022-08-22T15:47:31.566Z,28.30
2022-08-22T15:50:27.145Z,28.10
2022-08-22T15:53:14.931Z,27.90
2022-08-22T15:56:05.547Z,27.70
2022-08-22T15:58:37.899Z,27.50
2022-08-22T16:01:19.990Z,27.40
2022-08-22T16:04:06.089Z,27.30
2022-08-22T16:07:01.222Z,27.20
2022-08-22T16:09:48.129Z,27.00
2022-08-22T16:12:33.467Z,26.60
2022-08-22T16:15:05.245Z,26.30
2022-08-22T16:17:40.021Z,26.10
2022-08-22T16:20:19.222Z,26.00
2022-08-22T16:23:06.734Z,25.80
2022-08-22T16:25:45.408Z,25.50
2022-08-22T16:29:02.546Z,25.40
2022-08-22T16:31:39.688Z,25.30
2022-08-22T16:34:21.167Z,25.20
2022-08-22T16:37:19.538Z,25.20
2022-08-22T16:39:58.595Z,25.10
2022-08-22T16:42:27.473Z,24.90
2022-08-22T16:45:04.977Z,24.80
2022-08-22T16:47:41.474Z,24.80
2022-08-22T16:50:23.284Z,24.70
2022-08-22T16:52:57.684Z,24.60
2022-08-22T16:55:30.355Z,24.50
2022-08-22T16:58:21.306Z,24.50
2022-08-22T17:01:03.019Z,24.50
2022-08-22T17:03:32.489Z,24.40
2022-08-22T17:06:15.240Z,24.30
2022-08-22T17:09:19.821Z,24.20
2022-08-22T17:11:52.736Z,24.30
2022-08-22T17:14:42.455Z,24.30
2022-08-22T17:17:32.122Z,24.20
2022-08-22T17:20:21.228Z,24.20
2022-08-22T17:23:05.449Z,24.20
2022-08-22T17:25:48.344Z,24.10
2022-08-22T17:28:34.382Z,24.00
2022-08-22T17:31:17.066Z,24.00
2022-08-22T17:34:04.522Z,24.00
2022-08-22T17:36:31.409Z,23.90
2022-08-22T17:39:15.784Z,23.90
2022-08-22T17:41:59.707Z,23.90
2022-08-22T17:45:01.169Z,24.00
2022-08-22T17:47:45.623Z,23.90
2022-08-22T17:50:22.550Z,23.80
2022-08-22T17:53:16.217Z,23.70
2022-08-22T17:56:03.101Z,23.70
2022-08-22T17:58:46.289Z,23.50
2022-08-22T18:01:38.946Z,23.50
2022-08-22T18:04:12.343Z,23.40
2022-08-22T18:06:49.288Z,23.30
2022-08-22T18:09:37.937Z,23.30
2022-08-22T18:12:17.893Z,23.30
2022-08-22T18:14:52.383Z,23.20
2022-08-22T18:17:48.882Z,23.10
2022-08-22T18:20:39.358Z,22.90
2022-08-22T18:23:35.794Z,22.80
2022-08-22T18:26:31.179Z,22.70
2022-08-22T18:29:19.307Z,22.60
2022-08-22T18:32:07.213Z,22.50
2022-08-22T18:34:46.682Z,22.50
2022-08-22T18:37:35.778Z,22.30
2022-08-22T18:40:08.421Z,22.20
2022-08-22T18:42:57.684Z,22.20
2022-08-22T18:45:46.036Z,22.10
2022-08-22T18:48:28.714Z,22.10
2022-08-22T18:51:38.248Z,22.00
2022-08-22T18:54:05.409Z,21.90
2022-08-22T18:56:50.378Z,21.80
2022-08-22T18:59:26.713Z,21.60
2022-08-22T19:02:11.640Z,21.50
2022-08-22T19:04:53.355Z,21.40
2022-08-22T19:07:54.503Z,21.30
2022-08-22T19:10:31.720Z,21.10
2022-08-22T19:13:24.059Z,21.10
2022-08-22T19:16:06.117Z,21.00
2022-08-22T19:18:39.051Z,20.80
2022-08-22T19:21:49.149Z,20.80
2022-08-22T19:24:29.122Z,20.80
2022-08-22T19:27:12.290Z,20.80
2022-08-22T19:29:39.757Z,20.80
2022-08-22T19:32:12.726Z,20.90
2022-08-22T19:34:47.671Z,20.90
2022-08-22T19:37:31.043Z,20.80
2022-08-22T19:40:11.550Z,20.80
2022-08-22T19:42:41.401Z,20.80
2022-08-22T19:45:22.111Z,20.80
2022-08-22T19:48:13.226Z,20.80
2022-08-22T19:50:42.039Z,20.70
2022-08-22T19:53:33.671Z,20.70
2022-08-22T19:56:36.570Z,20.60
2022-08-22T19:59:36.734Z,20.60
2022-08-22T20:02:23.995Z,20.50
2022-08-22T20:05:28.778Z,20.40
2022-08-22T20:08:33.961Z,20.20
2022-08-22T20:11:37.709Z,20.10
2022-08-22T20:14:29.921Z,20.10
2022-08-22T20:17:25.473Z,20.00
2022-08-22T20:23:04.646Z,19.90
2022-08-22T20:25:50.138Z,19.80
2022-08-22T20:28:46.897Z,19.80
2022-08-22T20:31:22.958Z,19.70
2022-08-22T20:33:55.324Z,19.70
2022-08-22T20:36:27.604Z,19.60
2022-08-22T20:39:01.448Z,19.60
2022-08-22T20:41:36.960Z,19.50
2022-08-22T20:44:30.846Z,19.50
2022-08-22T20:47:06.621Z,19.50
2022-08-22T20:49:43.054Z,19.50
2022-08-22T20:52:21.353Z,19.40
2022-08-22T20:55:04.616Z,19.40
2022-08-22T20:57:33.393Z,19.40
2022-08-22T21:00:12.981Z,19.30
2022-08-22T21:02:55.202Z,19.20
2022-08-22T21:05:25.646Z,19.10
2022-08-22T21:08:16.272Z,19.00
2022-08-22T21:11:01.543Z,18.90
2022-08-22T21:13:36.531Z,18.90
2022-08-22T21:16:20.060Z,18.90
2022-08-22T21:18:52.667Z,18.80
2022-08-22T21:21:34.291Z,18.80
2022-08-22T21:24:07.005Z,18.80
2022-08-22T21:26:45.943Z,18.70
2022-08-22T21:29:12.553Z,18.70
2022-08-22T21:31:49.102Z,18.70
2022-08-22T21:34:32.463Z,18.70
2022-08-22T21:37:09.353Z,18.70
2022-08-22T21:39:41.916Z,18.70
2022-08-22T21:42:15.498Z,18.70
2022-08-22T21:44:54.219Z,18.60
2022-08-22T21:47:30.599Z,18.60
2022-08-22T21:50:23.168Z,18.60
2022-08-22T21:52:55.676Z,18.60
2022-08-22T21:55:28.311Z,18.60
2022-08-22T21:58:36.971Z,18.50
2022-08-22T22:01:23.185Z,18.50
2022-08-22T22:03:51.826Z,18.40
2022-08-22T22:06:18.550Z,18.10
2022-08-22T22:08:45.357Z,18.00
2022-08-22T22:11:14.374Z,17.80
2022-08-22T22:13:41.481Z,17.70
2022-08-22T22:16:11.942Z,17.70
2022-08-22T22:18:39.274Z,17.60
2022-08-22T22:21:06.306Z,17.60
2022-08-22T22:23:33.074Z,17.60
2022-08-22T22:26:02.420Z,17.50
2022-08-22T22:28:33.454Z,17.50
2022-08-22T22:31:00.421Z,17.50
2022-08-22T22:33:30.413Z,17.40
2022-08-22T22:36:03.069Z,17.40
2022-08-22T22:38:29.761Z,17.40
2022-08-22T22:40:56.668Z,17.40
2022-08-22T22:43:23.659Z,17.40
2022-08-22T22:45:50.426Z,17.30
2022-08-22T22:48:18.182Z,17.30
2022-08-22T22:50:54.756Z,17.20
2022-08-22T22:53:33.755Z,17.20
2022-08-22T22:56:06.798Z,17.10
2022-08-22T22:58:36.326Z,17.10
2022-08-22T23:01:11.486Z,17.10
2022-08-22T23:03:38.539Z,17.10
2022-08-22T23:06:20.348Z,17.00
2022-08-22T23:08:48.617Z,16.90
2022-08-22T23:11:20.982Z,16.90
2022-08-22T23:13:48.494Z,16.80
2022-08-22T23:16:19.289Z,16.80
2022-08-22T23:18:46.667Z,16.80
2022-08-22T23:21:16.438Z,16.80
2022-08-22T23:23:43.641Z,16.70
2022-08-22T23:26:11.193Z,16.70
2022-08-22T23:28:37.908Z,16.60
2022-08-22T23:31:11.603Z,16.60
2022-08-22T23:33:38.629Z,16.50
2022-08-22T23:36:32.193Z,16.40
2022-08-22T23:38:58.937Z,16.30
2022-08-22T23:41:26.577Z,16.30
2022-08-22T23:43:54.990Z,16.20
2022-08-22T23:46:24.119Z,16.30
2022-08-22T23:48:51.263Z,16.30
2022-08-22T23:51:22.994Z,16.40
2022-08-22T23:53:50.698Z,16.40
2022-08-22T23:56:19.533Z,16.40
2022-08-22T23:58:47.472Z,16.40
